Aérodrome :
LOGIN :

S'inscrire | Disclaimer

   EN    FR    IT 

 










Légende :    VFR   VFR Marginal   IFR   IFR Intensif   IFR Très Intensif
Visi : 
Plafond : 
>= 8 km
>= 3000ft
5 à 8 km
1000 à 3000 ft
1500m à 5 km
500 à 1000 ft
800 à 1500m
200 à 500 ft
< 800m
< 200 ft
Symboles :   Orages  Brouillard  Fortes neiges  Fortes précipitations  Vent > 20 kt
SIGMETs :   Divers  Orages  Givrage  Turbulence  Onde Orograph.  Cendres Volcan.







- Altitude de l'aérodrome : 16 ft
- Code IATA : SDR


LEXJ - Santander Cantabria

DERNIER METAR :
  • 171700Z 05008KT 010V100 CAVOK 23/19 Q1019

METARs EXPIRÉS :
  • 171630Z 05008KT 010V090 CAVOK 23/19 Q1019
  • 171600Z 05006KT 350V100 CAVOK 23/19 Q1019
  • 171530Z 04004KT 350V100 9999 FEW024 23/19 Q1020
  • 171500Z 05005KT 350V090 9999 BKN024 23/19 Q1020
  • 171430Z 06004KT 010V110 9999 FEW029 24/19 Q1020

TAF TAF LEXJ
Valide du 17 à 15h jusqu'au 18 à 15h UTC


171400Z 1715/1815 20003KT 9999 FEW020 TX24/1715Z TN15/1803Z
TEMPO 1715/1720 06010KT
PROB40
TEMPO 1800/1813 BKN010
PROB40
TEMPO 1807/1813 3000 -RADZ
TEMPO 1810/1815 32010KT
Pas de NOTAMs connus pour ce terrain.



MET'MAP, la Météo Aéronautique d'un coup d'oeil ! - Copyright ORBIFLY Décembre 2007 - Disclaimer

ORBIFLY MET'MAP TEAM :

Programmation & Développement : Alexandra Zaïnal
Conception & Développement : Baudouin d'Aumeries
Co-Programmation & Développement : Marc-Olivier Méhu
Soutien technique & logistique : Manuel Goepfert

Contact : metmap@orbifly.com




SOURCES & CREDITS :

   NOAA